sensor_id;sensor_type;location;lat;lon;timestamp;P1;P2;P0
35654;PMS1003;21773;50.010;19.972;2023-06-10T00:01:48;19.00;19.00;17.00
35654;PMS1003;21773;50.010;19.972;2023-06-10T00:04:53;22.60;21.00;18.60
35654;PMS1003;21773;50.010;19.972;2023-06-10T00:07:57;22.20;19.80;17.00
35654;PMS1003;21773;50.010;19.972;2023-06-10T00:11:01;20.00;19.00;17.00
35654;PMS1003;21773;50.010;19.972;2023-06-10T00:14:04;20.40;20.00;17.00
35654;PMS1003;21773;50.010;19.972;2023-06-10T00:17:08;20.00;19.00;17.00
35654;PMS1003;21773;50.010;19.972;2023-06-10T00:20:13;23.00;20.20;18.20
35654;PMS1003;21773;50.010;19.972;2023-06-10T00:23:16;24.00;22.00;19.00
35654;PMS1003;21773;50.010;19.972;2023-06-10T00:26:20;21.00;18.80;16.20
35654;PMS1003;21773;50.010;19.972;2023-06-10T00:29:24;20.50;19.00;17.00
35654;PMS1003;21773;50.010;19.972;2023-06-10T00:32:27;21.40;20.00;16.00
35654;PMS1003;21773;50.010;19.972;2023-06-10T00:35:32;21.80;20.00;17.00
35654;PMS1003;21773;50.010;19.972;2023-06-10T00:38:35;21.40;20.00;18.00
35654;PMS1003;21773;50.010;19.972;2023-06-10T00:41:39;19.00;19.00;17.00
35654;PMS1003;21773;50.010;19.972;2023-06-10T00:44:42;19.20;16.60;14.20
35654;PMS1003;21773;50.010;19.972;2023-06-10T00:47:45;21.75;19.75;17.00
35654;PMS1003;21773;50.010;19.972;2023-06-10T00:50:50;22.00;21.00;18.00
35654;PMS1003;21773;50.010;19.972;2023-06-10T00:53:53;19.80;18.00;15.00
35654;PMS1003;21773;50.010;19.972;2023-06-10T00:57:00;23.40;20.00;17.00
35654;PMS1003;21773;50.010;19.972;2023-06-10T01:00:04;22.00;20.50;17.50
35654;PMS1003;21773;50.010;19.972;2023-06-10T01:03:09;17.80;17.00;15.00
35654;PMS1003;21773;50.010;19.972;2023-06-10T01:06:17;22.50;21.00;17.00
35654;PMS1003;21773;50.010;19.972;2023-06-10T01:09:30;19.80;19.00;16.20
35654;PMS1003;21773;50.010;19.972;2023-06-10T01:12:41;21.00;19.20;17.00
35654;PMS1003;21773;50.010;19.972;2023-06-10T01:15:50;21.00;20.00;17.40
35654;PMS1003;21773;50.010;19.972;2023-06-10T01:18:55;21.60;19.60;17.00
35654;PMS1003;21773;50.010;19.972;2023-06-10T01:22:01;21.00;19.00;17.00
35654;PMS1003;21773;50.010;19.972;2023-06-10T01:25:04;19.40;18.00;16.00
35654;PMS1003;21773;50.010;19.972;2023-06-10T01:28:14;23.00;22.00;19.60
35654;PMS1003;21773;50.010;19.972;2023-06-10T01:31:22;23.00;22.00;18.00
35654;PMS1003;21773;50.010;19.972;2023-06-10T01:34:35;21.25;21.00;19.00
35654;PMS1003;21773;50.010;19.972;2023-06-10T01:37:45;22.00;21.00;17.00
35654;PMS1003;21773;50.010;19.972;2023-06-10T01:40:49;22.00;22.00;19.75
35654;PMS1003;21773;50.010;19.972;2023-06-10T01:43:56;24.00;23.00;19.40
35654;PMS1003;21773;50.010;19.972;2023-06-10T01:46:59;21.00;19.40;18.00
35654;PMS1003;21773;50.010;19.972;2023-06-10T01:50:03;23.75;23.00;20.00
35654;PMS1003;21773;50.010;19.972;2023-06-10T01:53:11;24.75;22.75;19.75
35654;PMS1003;21773;50.010;19.972;2023-06-10T01:56:14;25.00;24.00;20.00
35654;PMS1003;21773;50.010;19.972;2023-06-10T01:59:20;23.00;22.00;19.00
35654;PMS1003;21773;50.010;19.972;2023-06-10T02:02:23;23.00;22.00;19.00
35654;PMS1003;21773;50.010;19.972;2023-06-10T02:05:26;24.00;22.00;19.00
35654;PMS1003;21773;50.010;19.972;2023-06-10T02:08:31;21.00;20.00;18.60
35654;PMS1003;21773;50.010;19.972;2023-06-10T02:11:34;24.00;20.75;18.00
35654;PMS1003;21773;50.010;19.972;2023-06-10T02:14:38;25.00;23.00;20.00
35654;PMS1003;21773;50.010;19.972;2023-06-10T02:17:41;22.00;21.00;18.00
35654;PMS1003;21773;50.010;19.972;2023-06-10T02:20:46;23.60;22.40;19.40
35654;PMS1003;21773;50.010;19.972;2023-06-10T02:23:51;24.50;23.00;19.75
35654;PMS1003;21773;50.010;19.972;2023-06-10T02:26:55;28.75;26.50;21.75
35654;PMS1003;21773;50.010;19.972;2023-06-10T02:29:58;23.25;21.00;18.50
35654;PMS1003;21773;50.010;19.972;2023-06-10T02:33:04;21.20;20.20;19.00
35654;PMS1003;21773;50.010;19.972;2023-06-10T02:36:12;22.20;22.00;20.00
35654;PMS1003;21773;50.010;19.972;2023-06-10T02:39:19;24.80;23.80;20.00
35654;PMS1003;21773;50.010;19.972;2023-06-10T02:42:23;24.00;22.80;19.00
35654;PMS1003;21773;50.010;19.972;2023-06-10T02:45:27;23.00;21.50;18.50
35654;PMS1003;21773;50.010;19.972;2023-06-10T02:48:38;21.60;20.60;18.60
35654;PMS1003;21773;50.010;19.972;2023-06-10T02:51:45;25.20;23.60;20.00
35654;PMS1003;21773;50.010;19.972;2023-06-10T02:54:50;21.00;21.00;18.60
35654;PMS1003;21773;50.010;19.972;2023-06-10T02:57:54;23.60;22.00;20.00
35654;PMS1003;21773;50.010;19.972;2023-06-10T03:00:59;25.00;22.60;20.00
35654;PMS1003;21773;50.010;19.972;2023-06-10T03:04:10;23.00;21.00;19.00
35654;PMS1003;21773;50.010;19.972;2023-06-10T03:07:21;24.20;22.20;19.00
35654;PMS1003;21773;50.010;19.972;2023-06-10T03:10:28;22.20;22.00;19.20
35654;PMS1003;21773;50.010;19.972;2023-06-10T03:13:34;23.40;22.40;18.60
35654;PMS1003;21773;50.010;19.972;2023-06-10T03:16:38;24.80;24.00;20.00
35654;PMS1003;21773;50.010;19.972;2023-06-10T03:19:44;23.80;21.00;18.80
35654;PMS1003;21773;50.010;19.972;2023-06-10T03:22:47;28.00;24.00;21.60
35654;PMS1003;21773;50.010;19.972;2023-06-10T03:25:53;24.00;23.40;20.00
35654;PMS1003;21773;50.010;19.972;2023-06-10T03:28:58;25.40;24.00;19.60
35654;PMS1003;21773;50.010;19.972;2023-06-10T03:32:01;28.60;24.00;20.00
35654;PMS1003;21773;50.010;19.972;2023-06-10T03:35:05;27.40;26.40;21.40
35654;PMS1003;21773;50.010;19.972;2023-06-10T03:38:11;26.80;23.80;20.80
35654;PMS1003;21773;50.010;19.972;2023-06-10T03:41:16;24.00;24.00;20.00
35654;PMS1003;21773;50.010;19.972;2023-06-10T03:44:20;24.00;22.75;19.00
35654;PMS1003;21773;50.010;19.972;2023-06-10T03:47:23;26.60;25.00;21.00
35654;PMS1003;21773;50.010;19.972;2023-06-10T03:50:27;25.80;23.80;20.00
35654;PMS1003;21773;50.010;19.972;2023-06-10T03:53:31;27.00;26.00;21.80
35654;PMS1003;21773;50.010;19.972;2023-06-10T03:56:36;28.40;26.60;21.00
35654;PMS1003;21773;50.010;19.972;2023-06-10T03:59:39;25.75;23.75;20.00
35654;PMS1003;21773;50.010;19.972;2023-06-10T04:02:43;28.00;25.00;20.60
35654;PMS1003;21773;50.010;19.972;2023-06-10T04:05:59;30.40;28.40;22.00
35654;PMS1003;21773;50.010;19.972;2023-06-10T04:09:02;29.25;28.25;22.00
35654;PMS1003;21773;50.010;19.972;2023-06-10T04:12:08;34.60;31.20;24.00
35654;PMS1003;21773;50.010;19.972;2023-06-10T04:15:12;29.00;27.00;22.00
35654;PMS1003;21773;50.010;19.972;2023-06-10T04:18:16;25.50;25.00;21.00
35654;PMS1003;21773;50.010;19.972;2023-06-10T04:21:20;28.80;26.60;22.00
35654;PMS1003;21773;50.010;19.972;2023-06-10T04:24:24;23.00;22.00;19.00
35654;PMS1003;21773;50.010;19.972;2023-06-10T04:27:29;21.80;21.00;19.00
35654;PMS1003;21773;50.010;19.972;2023-06-10T04:30:34;22.00;21.00;18.40
35654;PMS1003;21773;50.010;19.972;2023-06-10T04:33:38;24.00;23.00;20.00
35654;PMS1003;21773;50.010;19.972;2023-06-10T04:36:42;23.00;22.00;19.00
35654;PMS1003;21773;50.010;19.972;2023-06-10T04:39:46;20.60;20.00;18.00
35654;PMS1003;21773;50.010;19.972;2023-06-10T04:42:51;20.80;20.00;18.00
35654;PMS1003;21773;50.010;19.972;2023-06-10T04:45:55;24.00;23.00;19.00
35654;PMS1003;21773;50.010;19.972;2023-06-10T04:48:58;24.00;21.00;18.75
35654;PMS1003;21773;50.010;19.972;2023-06-10T04:52:02;20.25;19.50;17.00
35654;PMS1003;21773;50.010;19.972;2023-06-10T04:55:11;25.60;21.40;19.00
35654;PMS1003;21773;50.010;19.972;2023-06-10T04:58:16;24.20;22.80;19.80
35654;PMS1003;21773;50.010;19.972;2023-06-10T05:01:19;24.00;23.00;20.00
35654;PMS1003;21773;50.010;19.972;2023-06-10T05:04:22;22.20;20.60;18.20
35654;PMS1003;21773;50.010;19.972;2023-06-10T05:07:26;22.00;22.00;19.00
35654;PMS1003;21773;50.010;19.972;2023-06-10T05:10:29;19.00;19.00;16.00
35654;PMS1003;21773;50.010;19.972;2023-06-10T05:13:34;19.25;19.00;17.00
35654;PMS1003;21773;50.010;19.972;2023-06-10T05:16:38;18.33;16.00;14.00
35654;PMS1003;21773;50.010;19.972;2023-06-10T05:19:41;18.60;18.40;16.40
35654;PMS1003;21773;50.010;19.972;2023-06-10T05:22:45;19.50;18.00;16.00
35654;PMS1003;21773;50.010;19.972;2023-06-10T05:25:51;19.50;18.50;16.00
35654;PMS1003;21773;50.010;19.972;2023-06-10T05:28:56;20.00;18.00;16.00
35654;PMS1003;21773;50.010;19.972;2023-06-10T05:32:03;23.60;22.00;19.00
35654;PMS1003;21773;50.010;19.972;2023-06-10T05:35:09;21.80;19.20;17.00
35654;PMS1003;21773;50.010;19.972;2023-06-10T05:38:13;26.00;21.40;19.00
35654;PMS1003;21773;50.010;19.972;2023-06-10T05:41:16;19.50;19.00;16.00
35654;PMS1003;21773;50.010;19.972;2023-06-10T05:44:21;20.00;18.00;16.00
35654;PMS1003;21773;50.010;19.972;2023-06-10T05:47:24;21.00;20.00;18.00
35654;PMS1003;21773;50.010;19.972;2023-06-10T05:50:27;17.40;16.00;15.00
35654;PMS1003;21773;50.010;19.972;2023-06-10T05:53:31;18.75;18.00;15.75
35654;PMS1003;21773;50.010;19.972;2023-06-10T05:56:38;18.40;18.00;15.40
35654;PMS1003;21773;50.010;19.972;2023-06-10T05:59:42;16.40;16.40;15.00
35654;PMS1003;21773;50.010;19.972;2023-06-10T06:02:49;20.40;17.00;15.00
35654;PMS1003;21773;50.010;19.972;2023-06-10T06:05:52;15.20;14.20;12.20
35654;PMS1003;21773;50.010;19.972;2023-06-10T06:08:56;16.60;16.60;14.80
35654;PMS1003;21773;50.010;19.972;2023-06-10T06:11:59;17.00;16.00;13.60
35654;PMS1003;21773;50.010;19.972;2023-06-10T06:15:04;18.40;17.00;14.60
35654;PMS1003;21773;50.010;19.972;2023-06-10T06:18:10;21.00;18.40;16.40
35654;PMS1003;21773;50.010;19.972;2023-06-10T06:21:13;16.00;15.00;14.00
35654;PMS1003;21773;50.010;19.972;2023-06-10T06:24:16;17.00;17.00;15.40
35654;PMS1003;21773;50.010;19.972;2023-06-10T06:27:20;17.80;17.80;14.80
35654;PMS1003;21773;50.010;19.972;2023-06-10T06:30:25;15.00;13.50;13.00
35654;PMS1003;21773;50.010;19.972;2023-06-10T06:33:28;13.00;13.00;11.80
35654;PMS1003;21773;50.010;19.972;2023-06-10T06:36:32;19.00;18.00;16.00
35654;PMS1003;21773;50.010;19.972;2023-06-10T06:39:35;16.00;15.40;13.60
35654;PMS1003;21773;50.010;19.972;2023-06-10T06:42:38;14.00;14.00;13.00
35654;PMS1003;21773;50.010;19.972;2023-06-10T06:45:52;17.60;16.60;14.60
35654;PMS1003;21773;50.010;19.972;2023-06-10T06:48:55;14.75;14.00;13.25
35654;PMS1003;21773;50.010;19.972;2023-06-10T06:51:59;15.00;14.00;13.75
35654;PMS1003;21773;50.010;19.972;2023-06-10T06:55:02;15.00;14.00;12.60
35654;PMS1003;21773;50.010;19.972;2023-06-10T06:58:06;16.00;15.00;14.00
35654;PMS1003;21773;50.010;19.972;2023-06-10T07:01:11;13.40;13.00;11.40
35654;PMS1003;21773;50.010;19.972;2023-06-10T07:04:15;13.75;12.75;11.75
35654;PMS1003;21773;50.010;19.972;2023-06-10T07:07:18;16.00;15.00;14.00
35654;PMS1003;21773;50.010;19.972;2023-06-10T07:10:22;15.00;14.40;13.00
35654;PMS1003;21773;50.010;19.972;2023-06-10T07:13:27;16.67;15.00;14.00
35654;PMS1003;21773;50.010;19.972;2023-06-10T07:16:31;13.00;13.00;11.40
35654;PMS1003;21773;50.010;19.972;2023-06-10T07:19:35;17.00;16.00;14.00
35654;PMS1003;21773;50.010;19.972;2023-06-10T07:22:39;13.00;12.20;11.20
35654;PMS1003;21773;50.010;19.972;2023-06-10T07:25:43;17.00;14.00;13.00
35654;PMS1003;21773;50.010;19.972;2023-06-10T07:28:46;17.00;15.00;14.00
35654;PMS1003;21773;50.010;19.972;2023-06-10T07:31:50;15.00;15.00;13.00
35654;PMS1003;21773;50.010;19.972;2023-06-10T07:34:55;14.00;12.75;11.75
35654;PMS1003;21773;50.010;19.972;2023-06-10T07:37:58;17.00;15.00;13.60
35654;PMS1003;21773;50.010;19.972;2023-06-10T07:41:01;15.20;13.20;12.20
35654;PMS1003;21773;50.010;19.972;2023-06-10T07:44:04;14.75;14.75;12.75
35654;PMS1003;21773;50.010;19.972;2023-06-10T07:47:09;13.50;13.00;12.00
35654;PMS1003;21773;50.010;19.972;2023-06-10T07:50:12;15.00;13.40;12.40
35654;PMS1003;21773;50.010;19.972;2023-06-10T07:53:16;14.20;14.20;13.60
35654;PMS1003;21773;50.010;19.972;2023-06-10T07:56:20;13.50;13.00;11.50
35654;PMS1003;21773;50.010;19.972;2023-06-10T07:59:24;13.00;12.00;10.50
35654;PMS1003;21773;50.010;19.972;2023-06-10T08:02:29;16.00;14.00;13.00
35654;PMS1003;21773;50.010;19.972;2023-06-10T08:05:33;15.00;14.60;13.00
35654;PMS1003;21773;50.010;19.972;2023-06-10T08:08:36;14.50;13.50;12.50
35654;PMS1003;21773;50.010;19.972;2023-06-10T08:11:43;15.00;13.20;12.00
35654;PMS1003;21773;50.010;19.972;2023-06-10T08:14:46;15.00;14.00;13.00
35654;PMS1003;21773;50.010;19.972;2023-06-10T08:17:51;16.00;15.00;12.60
35654;PMS1003;21773;50.010;19.972;2023-06-10T08:20:55;15.50;14.75;12.75
35654;PMS1003;21773;50.010;19.972;2023-06-10T08:23:58;17.00;15.00;13.00
35654;PMS1003;21773;50.010;19.972;2023-06-10T08:27:02;12.40;12.00;11.40
35654;PMS1003;21773;50.010;19.972;2023-06-10T08:30:06;15.00;14.50;13.00
35654;PMS1003;21773;50.010;19.972;2023-06-10T08:33:13;14.60;14.00;13.00
35654;PMS1003;21773;50.010;19.972;2023-06-10T08:36:17;16.00;14.25;13.00
35654;PMS1003;21773;50.010;19.972;2023-06-10T08:39:20;12.60;12.00;11.00
35654;PMS1003;21773;50.010;19.972;2023-06-10T08:42:25;16.00;15.00;13.80
35654;PMS1003;21773;50.010;19.972;2023-06-10T08:45:31;14.40;13.40;12.60
35654;PMS1003;21773;50.010;19.972;2023-06-10T08:48:42;13.80;12.80;11.00
35654;PMS1003;21773;50.010;19.972;2023-06-10T08:51:47;14.60;14.00;13.00
35654;PMS1003;21773;50.010;19.972;2023-06-10T08:54:54;14.33;14.00;12.33
35654;PMS1003;21773;50.010;19.972;2023-06-10T08:58:02;12.60;11.60;10.60
35654;PMS1003;21773;50.010;19.972;2023-06-10T09:01:05;12.00;11.00;10.50
35654;PMS1003;21773;50.010;19.972;2023-06-10T09:04:10;13.00;13.00;11.60
35654;PMS1003;21773;50.010;19.972;2023-06-10T09:07:15;13.25;12.75;11.00
35654;PMS1003;21773;50.010;19.972;2023-06-10T09:10:18;12.00;11.60;11.00
35654;PMS1003;21773;50.010;19.972;2023-06-10T09:13:22;14.50;13.00;12.00
35654;PMS1003;21773;50.010;19.972;2023-06-10T09:16:25;12.00;11.00;10.00
35654;PMS1003;21773;50.010;19.972;2023-06-10T09:19:30;12.80;12.80;11.80
35654;PMS1003;21773;50.010;19.972;2023-06-10T09:22:34;11.00;11.00;10.00
35654;PMS1003;21773;50.010;19.972;2023-06-10T09:25:38;11.60;11.00;10.00
35654;PMS1003;21773;50.010;19.972;2023-06-10T09:28:42;11.25;11.00;10.00
35654;PMS1003;21773;50.010;19.972;2023-06-10T09:31:46;11.50;10.50;10.00
35654;PMS1003;21773;50.010;19.972;2023-06-10T09:34:51;12.00;12.00;10.40
35654;PMS1003;21773;50.010;19.972;2023-06-10T09:37:55;11.40;10.00;9.40
35654;PMS1003;21773;50.010;19.972;2023-06-10T09:40:59;10.00;10.00;9.00
35654;PMS1003;21773;50.010;19.972;2023-06-10T09:44:05;13.40;12.40;12.00
35654;PMS1003;21773;50.010;19.972;2023-06-10T09:47:19;11.50;10.75;9.75
35654;PMS1003;21773;50.010;19.972;2023-06-10T09:50:26;11.00;10.00;9.75
35654;PMS1003;21773;50.010;19.972;2023-06-10T09:53:36;11.00;11.00;9.40
35654;PMS1003;21773;50.010;19.972;2023-06-10T09:56:39;12.50;12.00;10.50
35654;PMS1003;21773;50.010;19.972;2023-06-10T09:59:44;11.00;10.00;9.00
35654;PMS1003;21773;50.010;19.972;2023-06-10T10:02:48;13.60;12.60;11.60
35654;PMS1003;21773;50.010;19.972;2023-06-10T10:05:58;13.25;12.25;11.25
35654;PMS1003;21773;50.010;19.972;2023-06-10T10:09:03;14.50;12.50;11.50
35654;PMS1003;21773;50.010;19.972;2023-06-10T10:12:08;12.60;11.60;10.60
35654;PMS1003;21773;50.010;19.972;2023-06-10T10:15:13;14.00;12.00;11.00
35654;PMS1003;21773;50.010;19.972;2023-06-10T10:18:20;12.00;11.00;10.00
35654;PMS1003;21773;50.010;19.972;2023-06-10T10:21:33;10.00;10.00;9.20
35654;PMS1003;21773;50.010;19.972;2023-06-10T10:24:44;12.00;11.50;11.00
35654;PMS1003;21773;50.010;19.972;2023-06-10T10:27:58;12.00;12.00;11.00
35654;PMS1003;21773;50.010;19.972;2023-06-10T10:31:08;9.50;9.00;7.75
35654;PMS1003;21773;50.010;19.972;2023-06-10T10:34:15;10.40;9.40;8.40
35654;PMS1003;21773;50.010;19.972;2023-06-10T10:37:20;9.60;9.00;8.00
35654;PMS1003;21773;50.010;19.972;2023-06-10T10:40:24;11.00;10.00;9.00
35654;PMS1003;21773;50.010;19.972;2023-06-10T10:43:31;10.00;9.80;9.00
35654;PMS1003;21773;50.010;19.972;2023-06-10T10:46:41;10.00;10.00;9.00
35654;PMS1003;21773;50.010;19.972;2023-06-10T10:49:45;10.00;10.00;8.40
35654;PMS1003;21773;50.010;19.972;2023-06-10T10:52:55;12.50;11.50;11.00
35654;PMS1003;21773;50.010;19.972;2023-06-10T10:56:04;11.40;11.00;10.00
35654;PMS1003;21773;50.010;19.972;2023-06-10T10:59:10;11.00;10.00;9.00
35654;PMS1003;21773;50.010;19.972;2023-06-10T11:02:17;12.00;10.00;9.00
35654;PMS1003;21773;50.010;19.972;2023-06-10T11:05:30;12.00;10.20;10.20
35654;PMS1003;21773;50.010;19.972;2023-06-10T11:12:06;13.00;11.00;10.00
35654;PMS1003;21773;50.010;19.972;2023-06-10T11:15:10;11.00;11.00;10.00
35654;PMS1003;21773;50.010;19.972;2023-06-10T11:18:23;14.00;14.00;12.60
35654;PMS1003;21773;50.010;19.972;2023-06-10T11:21:27;14.33;13.33;12.00
35654;PMS1003;21773;50.010;19.972;2023-06-10T11:24:31;13.00;11.00;11.00
35654;PMS1003;21773;50.010;19.972;2023-06-10T11:27:37;11.00;11.00;11.00
35654;PMS1003;21773;50.010;19.972;2023-06-10T11:30:49;16.00;14.60;13.60
35654;PMS1003;21773;50.010;19.972;2023-06-10T11:34:05;17.80;15.80;14.80
35654;PMS1003;21773;50.010;19.972;2023-06-10T11:37:09;14.00;13.40;12.00
35654;PMS1003;21773;50.010;19.972;2023-06-10T11:40:15;15.00;13.00;13.00
35654;PMS1003;21773;50.010;19.972;2023-06-10T11:43:19;13.00;13.00;12.00
35654;PMS1003;21773;50.010;19.972;2023-06-10T11:46:23;13.00;13.00;12.00
35654;PMS1003;21773;50.010;19.972;2023-06-10T11:49:29;14.20;14.20;13.20
35654;PMS1003;21773;50.010;19.972;2023-06-10T11:52:33;15.00;15.00;14.00
35654;PMS1003;21773;50.010;19.972;2023-06-10T11:55:43;15.40;14.40;12.00
35654;PMS1003;21773;50.010;19.972;2023-06-10T11:58:51;9.80;9.20;8.20
35654;PMS1003;21773;50.010;19.972;2023-06-10T12:01:56;8.75;8.75;8.00
35654;PMS1003;21773;50.010;19.972;2023-06-10T12:05:09;10.50;10.50;9.50
35654;PMS1003;21773;50.010;19.972;2023-06-10T12:08:13;10.00;10.00;9.50
35654;PMS1003;21773;50.010;19.972;2023-06-10T12:11:18;9.00;9.00;8.40
35654;PMS1003;21773;50.010;19.972;2023-06-10T12:17:53;8.00;8.00;7.20
35654;PMS1003;21773;50.010;19.972;2023-06-10T12:20:56;8.60;8.60;8.00
35654;PMS1003;21773;50.010;19.972;2023-06-10T12:24:03;8.50;7.50;7.00
35654;PMS1003;21773;50.010;19.972;2023-06-10T12:27:12;8.00;8.00;7.33
35654;PMS1003;21773;50.010;19.972;2023-06-10T12:30:18;11.00;11.00;10.00
35654;PMS1003;21773;50.010;19.972;2023-06-10T12:33:23;10.00;9.40;9.00
35654;PMS1003;21773;50.010;19.972;2023-06-10T12:36:26;8.00;8.00;7.00
35654;PMS1003;21773;50.010;19.972;2023-06-10T12:39:30;8.00;8.00;7.75
35654;PMS1003;21773;50.010;19.972;2023-06-10T12:42:36;9.00;9.00;8.00
35654;PMS1003;21773;50.010;19.972;2023-06-10T12:45:40;8.00;8.00;7.00
35654;PMS1003;21773;50.010;19.972;2023-06-10T12:48:49;8.25;8.25;8.00
35654;PMS1003;21773;50.010;19.972;2023-06-10T12:51:55;7.00;7.00;7.00
35654;PMS1003;21773;50.010;19.972;2023-06-10T12:54:59;8.40;8.40;8.00
35654;PMS1003;21773;50.010;19.972;2023-06-10T12:58:04;8.80;8.00;7.00
35654;PMS1003;21773;50.010;19.972;2023-06-10T13:01:08;6.00;5.00;4.20
35654;PMS1003;21773;50.010;19.972;2023-06-10T13:04:11;8.00;7.60;7.00
35654;PMS1003;21773;50.010;19.972;2023-06-10T13:07:15;7.00;7.00;6.00
35654;PMS1003;21773;50.010;19.972;2023-06-10T13:10:18;5.25;5.25;5.25
35654;PMS1003;21773;50.010;19.972;2023-06-10T13:13:27;9.75;7.75;7.00
35654;PMS1003;21773;50.010;19.972;2023-06-10T13:16:30;7.00;6.60;6.00
35654;PMS1003;21773;50.010;19.972;2023-06-10T13:19:35;6.60;6.00;5.60
35654;PMS1003;21773;50.010;19.972;2023-06-10T13:22:38;7.00;7.00;7.00
35654;PMS1003;21773;50.010;19.972;2023-06-10T13:25:42;8.50;8.00;7.00
35654;PMS1003;21773;50.010;19.972;2023-06-10T13:28:47;5.20;5.20;5.00
35654;PMS1003;21773;50.010;19.972;2023-06-10T13:31:50;7.40;7.00;6.00
35654;PMS1003;21773;50.010;19.972;2023-06-10T13:34:54;7.20;7.00;7.00
35654;PMS1003;21773;50.010;19.972;2023-06-10T13:37:58;8.00;7.40;7.00
35654;PMS1003;21773;50.010;19.972;2023-06-10T13:41:01;13.60;13.00;12.00
35654;PMS1003;21773;50.010;19.972;2023-06-10T13:44:07;15.00;14.00;13.00
35654;PMS1003;21773;50.010;19.972;2023-06-10T13:47:10;11.00;10.00;9.00
35654;PMS1003;21773;50.010;19.972;2023-06-10T13:50:14;10.00;9.00;8.00
35654;PMS1003;21773;50.010;19.972;2023-06-10T13:53:17;9.00;8.00;8.00
35654;PMS1003;21773;50.010;19.972;2023-06-10T13:56:20;6.40;5.60;5.40
35654;PMS1003;21773;50.010;19.972;2023-06-10T13:59:26;5.00;4.20;4.00
35654;PMS1003;21773;50.010;19.972;2023-06-10T14:02:29;8.60;8.00;7.00
35654;PMS1003;21773;50.010;19.972;2023-06-10T14:05:32;7.60;7.00;6.60
35654;PMS1003;21773;50.010;19.972;2023-06-10T14:08:36;7.60;7.00;6.60
35654;PMS1003;21773;50.010;19.972;2023-06-10T14:11:40;8.00;8.00;7.00
35654;PMS1003;21773;50.010;19.972;2023-06-10T14:14:45;8.40;7.60;7.60
35654;PMS1003;21773;50.010;19.972;2023-06-10T14:17:49;6.00;5.20;5.00
35654;PMS1003;21773;50.010;19.972;2023-06-10T14:20:52;5.00;5.00;4.75
35654;PMS1003;21773;50.010;19.972;2023-06-10T14:23:55;6.60;6.60;6.00
35654;PMS1003;21773;50.010;19.972;2023-06-10T14:26:59;7.00;7.00;6.60
35654;PMS1003;21773;50.010;19.972;2023-06-10T14:30:04;10.00;10.00;9.00
35654;PMS1003;21773;50.010;19.972;2023-06-10T14:33:08;9.00;9.00;8.00
35654;PMS1003;21773;50.010;19.972;2023-06-10T14:36:12;8.00;8.00;8.00
35654;PMS1003;21773;50.010;19.972;2023-06-10T14:39:15;8.00;7.00;7.00
35654;PMS1003;21773;50.010;19.972;2023-06-10T14:42:19;7.00;7.00;7.00
35654;PMS1003;21773;50.010;19.972;2023-06-10T14:45:23;7.80;7.80;7.00
35654;PMS1003;21773;50.010;19.972;2023-06-10T14:48:27;6.20;6.20;6.00
35654;PMS1003;21773;50.010;19.972;2023-06-10T14:51:30;8.00;8.00;7.00
35654;PMS1003;21773;50.010;19.972;2023-06-10T14:54:37;8.40;7.40;7.40
35654;PMS1003;21773;50.010;19.972;2023-06-10T14:57:40;7.25;6.25;6.00
35654;PMS1003;21773;50.010;19.972;2023-06-10T15:00:45;8.00;8.00;7.80
35654;PMS1003;21773;50.010;19.972;2023-06-10T15:03:48;7.00;7.00;6.40
35654;PMS1003;21773;50.010;19.972;2023-06-10T15:06:52;7.80;7.40;6.80
35654;PMS1003;21773;50.010;19.972;2023-06-10T15:09:55;6.00;6.00;6.00
35654;PMS1003;21773;50.010;19.972;2023-06-10T15:12:58;11.40;10.40;10.00
35654;PMS1003;21773;50.010;19.972;2023-06-10T15:16:03;6.00;6.00;5.60
35654;PMS1003;21773;50.010;19.972;2023-06-10T15:19:08;5.75;5.75;5.25
35654;PMS1003;21773;50.010;19.972;2023-06-10T15:22:11;9.00;9.00;8.75
35654;PMS1003;21773;50.010;19.972;2023-06-10T15:25:15;7.00;6.00;6.00
35654;PMS1003;21773;50.010;19.972;2023-06-10T15:28:32;5.00;4.80;4.00
35654;PMS1003;21773;50.010;19.972;2023-06-10T15:31:36;4.40;4.40;4.40
35654;PMS1003;21773;50.010;19.972;2023-06-10T15:34:41;10.00;9.00;8.00
35654;PMS1003;21773;50.010;19.972;2023-06-10T15:37:44;6.40;6.40;5.60
35654;PMS1003;21773;50.010;19.972;2023-06-10T15:40:47;9.00;8.60;8.00
35654;PMS1003;21773;50.010;19.972;2023-06-10T15:43:51;6.20;5.00;4.20
35654;PMS1003;21773;50.010;19.972;2023-06-10T15:46:55;4.00;4.00;4.00
35654;PMS1003;21773;50.010;19.972;2023-06-10T15:49:59;6.00;6.00;5.00
35654;PMS1003;21773;50.010;19.972;2023-06-10T15:53:02;7.00;6.00;5.00
35654;PMS1003;21773;50.010;19.972;2023-06-10T15:56:05;7.00;7.00;6.00
35654;PMS1003;21773;50.010;19.972;2023-06-10T15:59:09;7.00;7.00;6.00
35654;PMS1003;21773;50.010;19.972;2023-06-10T16:02:14;6.00;6.00;6.00
35654;PMS1003;21773;50.010;19.972;2023-06-10T16:05:18;7.80;7.00;6.00
35654;PMS1003;21773;50.010;19.972;2023-06-10T16:08:21;8.00;8.00;7.00
35654;PMS1003;21773;50.010;19.972;2023-06-10T16:11:25;7.50;7.50;7.00
35654;PMS1003;21773;50.010;19.972;2023-06-10T16:14:29;8.50;7.75;7.00
35654;PMS1003;21773;50.010;19.972;2023-06-10T16:17:34;9.00;9.00;8.00
35654;PMS1003;21773;50.010;19.972;2023-06-10T16:20:37;7.60;7.60;7.00
35654;PMS1003;21773;50.010;19.972;2023-06-10T16:23:41;7.00;7.00;7.00
35654;PMS1003;21773;50.010;19.972;2023-06-10T16:26:44;8.00;8.00;7.00
35654;PMS1003;21773;50.010;19.972;2023-06-10T16:29:49;10.00;8.00;8.00
35654;PMS1003;21773;50.010;19.972;2023-06-10T16:32:54;8.50;8.00;7.00
35654;PMS1003;21773;50.010;19.972;2023-06-10T16:35:57;8.40;8.40;8.00
35654;PMS1003;21773;50.010;19.972;2023-06-10T16:39:01;7.00;7.00;6.00
35654;PMS1003;21773;50.010;19.972;2023-06-10T16:42:04;7.50;7.50;7.25
35654;PMS1003;21773;50.010;19.972;2023-06-10T16:45:08;8.20;8.20;7.80
35654;PMS1003;21773;50.010;19.972;2023-06-10T16:48:14;8.60;8.60;8.00
35654;PMS1003;21773;50.010;19.972;2023-06-10T16:51:17;11.00;10.00;10.00
35654;PMS1003;21773;50.010;19.972;2023-06-10T16:54:21;12.00;11.00;11.00
35654;PMS1003;21773;50.010;19.972;2023-06-10T16:57:24;8.75;8.00;7.75
35654;PMS1003;21773;50.010;19.972;2023-06-10T17:00:27;8.00;8.00;7.00
35654;PMS1003;21773;50.010;19.972;2023-06-10T17:03:32;12.00;11.00;10.00
35654;PMS1003;21773;50.010;19.972;2023-06-10T17:06:35;9.80;9.00;8.40
35654;PMS1003;21773;50.010;19.972;2023-06-10T17:09:39;10.80;10.80;10.00
35654;PMS1003;21773;50.010;19.972;2023-06-10T17:12:42;10.00;9.40;9.00
35654;PMS1003;21773;50.010;19.972;2023-06-10T17:15:45;13.00;12.40;11.60
35654;PMS1003;21773;50.010;19.972;2023-06-10T17:18:50;8.60;8.60;8.00
35654;PMS1003;21773;50.010;19.972;2023-06-10T17:21:53;12.00;11.00;10.50